Aérodrome :
LOGIN :

S'inscrire | Disclaimer

   EN    FR    IT 

 










Légende :    VFR   VFR Marginal   IFR   IFR Intensif   IFR Très Intensif
Visi : 
Plafond : 
>= 8 km
>= 3000ft
5 à 8 km
1000 à 3000 ft
1500m à 5 km
500 à 1000 ft
800 à 1500m
200 à 500 ft
< 800m
< 200 ft
Symboles :   Orages  Brouillard  Fortes neiges  Fortes précipitations  Vent > 20 kt
SIGMETs :   Divers  Orages  Givrage  Turbulence  Onde Orograph.  Cendres Volcan.






- Altitude de l'aérodrome : 512 ft
- Code IATA : URO


LFOP - Rouen Vallée de Seine

DERNIER METAR :
  • 280830Z AUTO 31014KT 9999 -RA OVC011 03/01 Q1003 TEMPO 33018G28KT 3000 SHRA BKN008 BKN020CB

METARs EXPIRÉS :
  • 280800Z AUTO 32012KT 9999 -RA OVC013 03/02 Q1003 TEMPO 33018G28KT 3000 SHRA BKN008 BKN020CB
  • 280730Z AUTO 32013KT 9999 -RADZ OVC013 03/02 Q1002 TEMPO 33018G28KT 3000 SHRA BKN008 BKN020CB
  • 280700Z AUTO 32012KT 9999 -RADZ OVC013 03/02 Q1002 TEMPO 33018G28KT 3000 SHRA BKN008 BKN020CB
  • 280630Z AUTO 33014KT 8000 -RA BKN012 OVC018 03/02 Q1001 TEMPO 33018G28KT 3000 SHRA BKN008 BKN020CB
  • 280600Z AUTO 32014KT 8000 -RA BKN012 OVC019 03/02 Q1001 TEMPO 33018G28KT 3000 SHRA BKN008 BKN020CB

TAF TAF LFOP
Valide du 28 à 06h jusqu'au 29 à 06h UTC


280500Z 2806/2906 33015KT 9999 BKN020
TEMPO 2806/2811 33018G28KT 3000 SHRA BKN008 BKN020CB
BECMG 2817/2820 32005KT
ATIS : +33 2 35 80 80 34
Météo : +33 2 32 86 52 80



MET'MAP, la Météo Aéronautique d'un coup d'oeil ! - Copyright ORBIFLY Décembre 2007 - Disclaimer

ORBIFLY MET'MAP TEAM :

Programmation & Développement : Alexandra Zaïnal
Sur une idée originale de : Baudouin d'Aumeries
Assistance à la programmation : Marc-Olivier Méhu
Soutien technique & logistique : Manuel Goepfert

Contact : metmap@orbifly.com




SOURCES & CREDITS :

   NOAA